createdAt,value
2023-03-29T01:51:53.862Z,2.77
2023-03-29T01:57:03.351Z,2.7
2023-03-29T02:02:12.275Z,2.72
2023-03-29T02:07:21.223Z,2.73
2023-03-29T02:12:30.384Z,2.74
2023-03-29T02:17:40.118Z,2.73
2023-03-29T02:22:48.587Z,2.67
2023-03-29T02:27:57.052Z,2.75
2023-03-29T03:24:42.494Z,2.67
2023-03-29T03:29:51.588Z,2.68
2023-03-29T03:35:00.797Z,2.71
2023-03-29T03:40:08.620Z,2.78
2023-03-29T03:45:17.701Z,2.75
2023-03-29T03:50:26.144Z,2.73
2023-03-29T03:55:36.597Z,2.75
2023-03-29T04:00:45.077Z,2.72
2023-03-29T04:05:54.203Z,2.73
2023-03-29T04:11:05.361Z,2.76
2023-03-29T04:16:13.347Z,2.76
2023-03-29T04:21:21.631Z,2.81
2023-03-29T04:26:30.654Z,2.82
2023-03-29T04:31:39.384Z,2.85
2023-03-29T04:36:47.634Z,2.73
2023-03-29T04:41:56.084Z,2.82
2023-03-29T04:47:04.591Z,2.86
2023-03-29T04:52:13.733Z,2.82
2023-03-29T04:57:23.457Z,2.93
2023-03-29T05:02:31.568Z,2.83
2023-03-29T05:07:40.442Z,2.83
2023-03-29T05:54:05.045Z,2.89
2023-03-29T05:59:14.818Z,2.85
2023-03-29T06:04:23.613Z,2.88
2023-03-29T06:09:33.076Z,2.92
2023-03-29T06:14:41.528Z,2.78
2023-03-29T06:19:51.944Z,2.88
2023-03-29T06:25:01.028Z,2.79
2023-03-29T06:30:10.823Z,2.84
2023-03-29T06:35:19.966Z,2.74
2023-03-29T07:16:35.720Z,2.86
2023-03-29T07:21:46.513Z,2.94
2023-03-29T07:32:04.793Z,2.89
2023-03-29T07:37:13.872Z,2.96
2023-03-29T07:42:23.014Z,2.85
2023-03-29T07:47:32.414Z,2.97
2023-03-29T07:52:40.596Z,2.87
2023-03-29T07:57:50.517Z,2.94
2023-03-29T08:02:59.014Z,2.89
2023-03-29T08:08:08.585Z,2.83
2023-03-29T08:13:18.314Z,2.93
2023-03-29T08:18:28.125Z,2.86
2023-03-29T08:23:36.634Z,3.04
2023-03-29T08:28:46.991Z,2.95
2023-03-29T08:33:56.737Z,3.04
2023-03-29T08:39:05.880Z,2.95
2023-03-29T08:44:15.650Z,3.14
2023-03-29T09:30:42.019Z,3.16
2023-03-29T09:35:50.372Z,3.16
2023-03-29T09:40:58.486Z,3.18
2023-03-29T09:46:08.107Z,3.3
2023-03-29T10:17:00.122Z,3.11
2023-03-29T10:22:08.890Z,3.29
2023-03-29T10:27:16.701Z,3.19
2023-03-29T10:32:26.086Z,3.28
2023-03-29T10:37:35.584Z,3.37
2023-03-29T10:42:47.112Z,3.19
2023-03-29T10:47:56.186Z,3.19
2023-03-29T10:53:06.201Z,3.24
2023-03-29T10:58:16.585Z,3.16
2023-03-29T11:03:26.398Z,3.22
2023-03-29T11:08:34.887Z,3.28
2023-03-29T11:13:43.302Z,3.24
2023-03-29T11:18:51.762Z,3.21
2023-03-29T11:24:01.559Z,3.27
2023-03-29T11:29:11.276Z,3.34
2023-03-29T11:34:19.817Z,3.48
2023-03-29T11:39:29.541Z,3.32
2023-03-29T11:44:39.311Z,3.3
2023-03-29T11:49:14.535Z,3.52
2023-03-29T11:54:30.420Z,3.31
2023-03-29T11:59:40.453Z,3.28
2023-03-29T12:05:02.082Z,3.3
2023-03-29T12:10:11.452Z,3.24
2023-03-29T12:15:33.229Z,3.35
2023-03-29T12:20:48.573Z,3.39
2023-03-29T12:26:04.917Z,3.62
2023-03-29T12:31:20.182Z,3.32
2023-03-29T16:49:06.183Z,3.72
2023-03-29T16:54:21.093Z,3.52
2023-03-29T16:59:37.926Z,3.55
2023-03-29T17:04:53.374Z,3.55
2023-03-29T17:10:07.705Z,3.61
2023-03-29T17:15:23.822Z,3.54
2023-03-29T17:20:38.640Z,3.55
2023-03-29T17:25:54.890Z,3.39
2023-03-29T17:31:10.599Z,3.51
2023-03-29T17:36:26.732Z,3.55
2023-03-29T17:41:42.024Z,3.54
2023-03-29T17:46:58.570Z,3.54
2023-03-29T17:52:14.369Z,3.49
2023-03-29T17:57:32.385Z,3.61
2023-03-29T18:02:48.688Z,3.65
2023-03-29T18:08:03.550Z,3.51
2023-03-29T18:13:18.941Z,3.4
2023-03-29T18:18:34.507Z,3.62
2023-03-29T18:23:57.288Z,3.42
2023-03-29T18:29:10.297Z,3.41
2023-03-29T18:34:22.962Z,3.38
2023-03-29T18:39:37.864Z,3.46
2023-03-29T18:44:53.983Z,3.38
2023-03-29T18:50:08.905Z,3.35
2023-03-29T18:55:25.703Z,3.65
2023-03-29T19:00:40.632Z,3.48
2023-03-29T19:05:56.715Z,3.4
2023-03-29T19:11:11.664Z,3.57
2023-03-29T19:16:27.927Z,3.44
2023-03-29T19:21:42.042Z,3.55
2023-03-29T19:26:58.174Z,3.47
2023-03-29T19:32:13.118Z,3.4
2023-03-29T19:37:27.973Z,3.51
2023-03-29T19:42:44.081Z,3.51
2023-03-29T19:48:04.286Z,3.32
2023-03-29T19:53:13.827Z,3.27
2023-03-29T19:58:29.993Z,3.32
2023-03-29T20:03:47.052Z,3.5
2023-03-29T20:09:01.078Z,3.4
2023-03-29T20:14:17.886Z,3.32
2023-03-29T20:19:34.003Z,3.33
2023-03-29T20:24:50.192Z,3.48
2023-03-29T20:30:05.068Z,3.43
2023-03-29T20:35:19.960Z,3.39
2023-03-29T20:40:34.796Z,3.52
2023-03-29T20:45:54.974Z,3.28
2023-03-29T20:51:06.294Z,3.35
2023-03-29T20:56:21.974Z,3.55
2023-03-29T21:01:37.145Z,3.29
2023-03-29T21:06:53.692Z,3.39
2023-03-29T21:12:09.830Z,3.43
2023-03-29T21:17:24.972Z,3.25
2023-03-29T21:22:46.994Z,3.56
2023-03-29T21:27:57.071Z,3.58
2023-03-29T21:33:13.211Z,3.35
2023-03-29T21:38:28.072Z,3.44
2023-03-29T21:43:43.639Z,3.51
2023-03-29T21:48:59.782Z,3.43
2023-03-29T21:54:15.276Z,3.8
2023-03-29T21:59:31.443Z,3.33
2023-03-29T22:04:47.598Z,3.49
2023-03-29T22:10:03.172Z,3.61
2023-03-29T22:15:18.656Z,3.46
2023-03-29T22:20:35.562Z,3.39
2023-03-29T22:25:50.983Z,3.35
2023-03-29T22:31:07.130Z,3.3
2023-03-29T22:36:23.304Z,3.35
2023-03-29T22:41:37.649Z,3.46
2023-03-29T22:46:53.719Z,3.32
2023-03-29T22:52:09.831Z,3.27
2023-03-29T22:57:26.259Z,3.56
2023-03-29T23:02:41.763Z,3.27
2023-03-29T23:07:57.084Z,3.35
2023-03-29T23:13:12.001Z,3.4
2023-03-29T23:18:29.524Z,3.51
2023-03-29T23:23:46.187Z,3.28
2023-03-29T23:29:01.696Z,3.46
2023-03-29T23:34:17.850Z,3.34
2023-03-29T23:39:35.963Z,3.43
2023-03-29T23:44:50.817Z,3.4
2023-03-29T23:50:06.956Z,3.65
2023-03-29T23:55:22.195Z,3.46
